createdAt,value
2023-07-22T00:01:25.157Z,3.10
2023-07-22T00:03:53.118Z,2.60
2023-07-22T00:06:21.443Z,2.40
2023-07-22T00:08:50.567Z,2.60
2023-07-22T00:11:18.066Z,2.90
2023-07-22T00:13:45.569Z,2.30
2023-07-22T00:16:13.230Z,3.20
2023-07-22T00:18:40.760Z,2.90
2023-07-22T00:21:10.266Z,3.40
2023-07-22T00:23:37.863Z,3.10
2023-07-22T00:26:05.366Z,2.90
2023-07-22T00:28:32.899Z,3.50
2023-07-22T00:31:01.953Z,3.00
2023-07-22T00:33:29.938Z,3.00
2023-07-22T00:35:57.834Z,3.10
2023-07-22T00:38:25.394Z,3.60
2023-07-22T00:40:53.305Z,3.20
2023-07-22T00:43:20.935Z,3.20
2023-07-22T00:45:48.520Z,3.10
2023-07-22T00:48:15.981Z,2.70
2023-07-22T00:50:43.515Z,2.70
2023-07-22T00:53:11.376Z,2.90
2023-07-22T00:55:40.566Z,3.00
2023-07-22T00:58:08.140Z,3.10
2023-07-22T01:00:35.716Z,2.60
2023-07-22T01:03:03.481Z,2.90
2023-07-22T01:05:31.332Z,2.80
2023-07-22T01:07:59.076Z,3.10
2023-07-22T01:10:26.578Z,2.50
2023-07-22T01:12:54.570Z,3.00
2023-07-22T01:15:22.070Z,2.80
2023-07-22T01:17:49.879Z,2.80
2023-07-22T01:20:17.833Z,3.00
2023-07-22T01:22:54.512Z,3.00
2023-07-22T01:25:26.417Z,3.10
2023-07-22T01:27:54.711Z,3.20
2023-07-22T01:30:22.430Z,3.00
2023-07-22T01:32:51.644Z,3.20
2023-07-22T01:35:20.459Z,3.20
2023-07-22T01:37:48.147Z,3.00
2023-07-22T01:40:15.772Z,2.70
2023-07-22T01:42:44.041Z,2.70
2023-07-22T01:45:12.136Z,3.10
2023-07-22T01:47:40.093Z,2.60
2023-07-22T01:50:08.573Z,2.90
2023-07-22T01:52:36.143Z,2.90
2023-07-22T01:55:06.778Z,3.10
2023-07-22T01:57:35.013Z,3.00
2023-07-22T02:00:02.966Z,3.10
2023-07-22T02:02:41.059Z,3.10
2023-07-22T02:05:11.164Z,2.90
2023-07-22T02:07:40.020Z,3.20
2023-07-22T02:10:09.340Z,2.70
2023-07-22T02:12:36.947Z,2.90
2023-07-22T02:15:05.526Z,3.00
2023-07-22T02:17:33.138Z,3.20
2023-07-22T02:20:00.757Z,3.20
2023-07-22T02:22:28.346Z,3.20
2023-07-22T02:24:55.838Z,3.00
2023-07-22T02:27:23.357Z,3.40
2023-07-22T02:29:50.837Z,3.40
2023-07-22T02:32:18.335Z,3.20
2023-07-22T02:34:45.855Z,3.50
2023-07-22T02:37:14.261Z,3.70
2023-07-22T02:39:41.760Z,3.60
2023-07-22T02:42:09.795Z,4.10
2023-07-22T02:44:37.524Z,4.10
2023-07-22T02:47:06.876Z,4.10
2023-07-22T02:49:34.766Z,4.20
2023-07-22T02:52:02.394Z,4.20
2023-07-22T02:54:29.936Z,3.90
2023-07-22T02:56:57.604Z,4.40
2023-07-22T02:59:25.637Z,3.70
2023-07-22T03:01:53.600Z,4.20
2023-07-22T03:04:21.114Z,4.00
2023-07-22T03:06:48.642Z,4.10
2023-07-22T03:09:16.151Z,4.30
2023-07-22T03:11:43.649Z,4.30
2023-07-22T03:14:11.454Z,3.70
2023-07-22T03:16:39.011Z,4.10
2023-07-22T03:19:07.428Z,3.70
2023-07-22T03:21:35.066Z,3.40
2023-07-22T03:24:02.526Z,4.00
2023-07-22T03:26:30.183Z,4.40
2023-07-22T03:28:57.698Z,4.20
2023-07-22T03:31:25.373Z,4.20
2023-07-22T03:36:52.765Z,4.10
2023-07-22T03:39:21.227Z,3.60
2023-07-22T03:41:48.737Z,3.80
2023-07-22T03:44:16.253Z,3.60
2023-07-22T03:46:43.761Z,3.60
2023-07-22T03:49:11.244Z,3.50
2023-07-22T03:51:38.718Z,4.00
2023-07-22T03:54:06.197Z,3.50
2023-07-22T03:56:33.907Z,3.30
2023-07-22T03:59:01.373Z,3.70
2023-07-22T04:01:28.890Z,3.30
2023-07-22T04:03:56.466Z,3.50
2023-07-22T04:06:24.089Z,3.20
2023-07-22T04:08:52.645Z,3.70
2023-07-22T04:11:20.243Z,3.60
2023-07-22T04:13:47.998Z,3.50
2023-07-22T04:16:15.534Z,3.30
2023-07-22T04:18:43.040Z,3.90
2023-07-22T04:21:10.556Z,3.30
2023-07-22T04:23:38.745Z,3.60
2023-07-22T04:26:08.736Z,3.10
2023-07-22T04:28:36.733Z,3.40
2023-07-22T04:31:05.398Z,3.50
2023-07-22T04:33:35.836Z,3.40
2023-07-22T04:36:03.376Z,3.50
2023-07-22T04:38:30.851Z,3.80
2023-07-22T04:40:58.394Z,3.80
2023-07-22T04:43:25.924Z,3.50
2023-07-22T04:45:53.547Z,3.30
2023-07-22T04:48:21.756Z,2.90
2023-07-22T04:50:49.357Z,3.20
2023-07-22T04:53:18.292Z,2.90
2023-07-22T04:55:45.830Z,3.00
2023-07-22T04:58:13.323Z,3.10
2023-07-22T05:00:40.806Z,3.00
2023-07-22T05:03:08.505Z,2.70
2023-07-22T05:05:37.627Z,2.70
2023-07-22T05:08:05.474Z,3.00
2023-07-22T05:10:32.975Z,2.80
2023-07-22T05:13:00.443Z,2.50
2023-07-22T05:15:27.936Z,2.70
2023-07-22T05:17:55.466Z,2.80
2023-07-22T05:20:23.420Z,2.80
2023-07-22T05:22:51.205Z,2.70
2023-07-22T05:25:19.065Z,2.70
2023-07-22T05:27:46.575Z,2.70
2023-07-22T05:30:28.499Z,2.50
2023-07-22T05:33:00.977Z,2.20
2023-07-22T05:35:28.607Z,2.20
2023-07-22T05:37:56.491Z,2.60
2023-07-22T05:40:24.051Z,2.30
2023-07-22T05:42:51.620Z,2.90
2023-07-22T05:45:19.387Z,2.80
2023-07-22T05:47:46.904Z,2.60
2023-07-22T05:50:14.548Z,2.50
2023-07-22T05:52:42.156Z,2.40
2023-07-22T05:55:10.307Z,2.70
2023-07-22T05:57:37.823Z,2.60
2023-07-22T06:00:08.268Z,2.60
2023-07-22T06:02:43.376Z,2.20
2023-07-22T06:05:10.975Z,2.60
2023-07-22T06:07:38.837Z,2.40
2023-07-22T06:10:09.400Z,2.70
2023-07-22T06:12:37.636Z,2.30
2023-07-22T06:15:09.597Z,2.50
2023-07-22T06:17:37.205Z,2.40
2023-07-22T06:20:05.724Z,2.50
2023-07-22T06:22:33.552Z,2.60
2023-07-22T06:25:01.137Z,2.50
2023-07-22T06:27:28.758Z,2.60
2023-07-22T06:29:56.545Z,2.90
2023-07-22T06:32:31.656Z,2.60
2023-07-22T06:35:11.123Z,2.50
2023-07-22T06:37:39.453Z,3.00
2023-07-22T06:40:07.835Z,3.10
2023-07-22T06:42:35.337Z,2.60
2023-07-22T06:45:03.214Z,2.60
2023-07-22T06:47:30.740Z,2.70
2023-07-22T06:50:00.257Z,2.70
2023-07-22T06:52:28.226Z,3.00
2023-07-22T06:54:55.968Z,2.90
2023-07-22T06:57:23.760Z,2.80
2023-07-22T06:59:52.274Z,2.90
2023-07-22T07:02:19.768Z,2.60
2023-07-22T07:04:47.224Z,3.10
2023-07-22T07:07:14.992Z,2.60
2023-07-22T07:09:42.653Z,2.60
2023-07-22T07:12:10.602Z,3.20
2023-07-22T07:14:38.210Z,3.20
2023-07-22T07:17:06.242Z,2.70
2023-07-22T07:19:34.130Z,3.20
2023-07-22T07:22:02.122Z,2.90
2023-07-22T07:24:30.019Z,3.10
2023-07-22T07:26:57.540Z,3.10
2023-07-22T07:29:51.568Z,3.20
2023-07-22T07:32:12.575Z,3.20
2023-07-22T07:34:40.134Z,3.20
2023-07-22T07:37:08.563Z,3.80
2023-07-22T07:39:39.223Z,3.30
2023-07-22T07:42:07.347Z,3.40
2023-07-22T07:44:35.113Z,3.60
2023-07-22T07:47:02.586Z,3.10
2023-07-22T07:49:30.068Z,3.20
2023-07-22T07:51:57.553Z,3.00
2023-07-22T07:54:26.332Z,3.50
2023-07-22T07:56:53.799Z,3.00
2023-07-22T07:59:21.302Z,3.10
2023-07-22T08:01:48.870Z,3.30
2023-07-22T08:04:18.385Z,3.40
2023-07-22T08:06:46.315Z,3.30
2023-07-22T08:09:19.986Z,3.20
2023-07-22T08:11:47.740Z,3.20
2023-07-22T08:14:16.064Z,3.30
2023-07-22T08:16:43.692Z,3.40
2023-07-22T08:19:12.389Z,3.60
2023-07-22T08:21:39.907Z,3.50
2023-07-22T08:24:07.565Z,3.20
2023-07-22T08:26:35.118Z,3.30
2023-07-22T08:29:02.638Z,3.10
2023-07-22T08:31:30.231Z,3.50
2023-07-22T08:33:58.094Z,3.50
2023-07-22T08:36:26.471Z,3.20
2023-07-22T08:38:54.255Z,3.50
2023-07-22T08:41:23.881Z,3.60
2023-07-22T08:43:51.822Z,3.40
2023-07-22T08:46:20.991Z,2.80
2023-07-22T08:48:49.794Z,2.90
2023-07-22T08:51:30.414Z,3.00
2023-07-22T08:54:11.095Z,2.90
2023-07-22T08:56:51.443Z,2.90
2023-07-22T08:59:19.496Z,2.30
2023-07-22T09:01:49.203Z,2.80
2023-07-22T09:04:16.693Z,2.50
2023-07-22T09:06:44.291Z,2.30
2023-07-22T09:09:13.109Z,2.20
2023-07-22T09:11:40.590Z,2.20
2023-07-22T09:14:08.795Z,2.30
2023-07-22T09:16:37.161Z,2.00
2023-07-22T09:19:05.829Z,2.20
2023-07-22T09:21:37.205Z,2.10
2023-07-22T09:24:22.906Z,2.10
2023-07-22T09:26:51.180Z,1.70
2023-07-22T09:29:18.847Z,2.30
2023-07-22T09:31:53.829Z,2.20
2023-07-22T09:34:21.552Z,2.20
2023-07-22T09:36:53.522Z,2.10
2023-07-22T09:39:21.008Z,2.40
2023-07-22T09:41:49.117Z,2.40
2023-07-22T09:44:16.865Z,2.10
2023-07-22T09:46:48.258Z,1.90
2023-07-22T09:49:17.563Z,1.80
2023-07-22T09:51:57.125Z,2.10
2023-07-22T09:54:33.058Z,2.10
2023-07-22T09:57:01.060Z,1.90
2023-07-22T09:59:30.108Z,1.80
2023-07-22T10:02:00.196Z,2.10
2023-07-22T10:04:29.598Z,2.30
2023-07-22T10:06:57.413Z,1.90
2023-07-22T10:09:24.925Z,1.60
2023-07-22T10:11:52.389Z,1.70
2023-07-22T10:14:19.923Z,1.70
2023-07-22T10:16:47.447Z,2.00
2023-07-22T10:19:14.968Z,1.80
2023-07-22T10:21:42.523Z,1.80
2023-07-22T10:24:10.093Z,1.90
2023-07-22T10:29:08.625Z,2.00
2023-07-22T10:31:36.253Z,1.80
2023-07-22T10:34:04.705Z,1.80
2023-07-22T10:36:32.375Z,2.00
2023-07-22T10:39:03.379Z,2.10
2023-07-22T10:41:33.600Z,2.00
2023-07-22T10:44:02.407Z,2.00
2023-07-22T10:46:40.097Z,1.60
2023-07-22T10:49:15.064Z,1.80
2023-07-22T10:51:43.175Z,2.10
2023-07-22T10:54:15.547Z,1.90
2023-07-22T10:56:46.448Z,1.60
2023-07-22T10:59:14.621Z,1.70
2023-07-22T11:01:45.310Z,1.80
2023-07-22T11:04:19.141Z,2.00
2023-07-22T11:06:49.743Z,1.70
2023-07-22T11:09:35.628Z,1.50
2023-07-22T11:12:12.060Z,1.50
2023-07-22T11:14:40.451Z,1.60
2023-07-22T11:17:09.573Z,1.50
2023-07-22T11:19:37.354Z,1.40
2023-07-22T11:22:05.459Z,1.60
2023-07-22T11:24:37.051Z,1.50
2023-07-22T11:27:06.351Z,1.50
2023-07-22T11:29:34.043Z,1.70
2023-07-22T11:32:01.604Z,1.50
2023-07-22T11:34:29.152Z,1.40
2023-07-22T11:36:57.465Z,1.50
2023-07-22T11:39:26.626Z,1.50
2023-07-22T11:41:54.645Z,1.30
2023-07-22T11:44:28.154Z,1.40
2023-07-22T11:47:04.827Z,1.60
2023-07-22T11:49:39.983Z,1.70
2023-07-22T11:52:11.873Z,1.60
2023-07-22T11:54:43.361Z,1.40
2023-07-22T11:57:24.384Z,1.30
2023-07-22T11:59:55.696Z,1.60
2023-07-22T12:02:29.617Z,1.60
2023-07-22T12:05:06.312Z,1.80
2023-07-22T12:07:35.487Z,1.80
2023-07-22T12:10:07.364Z,1.70
2023-07-22T12:12:53.236Z,1.60
2023-07-22T12:15:22.417Z,1.70
2023-07-22T12:17:55.038Z,1.70
2023-07-22T12:20:27.386Z,1.80
2023-07-22T12:22:55.699Z,1.80
2023-07-22T12:25:23.605Z,1.50
2023-07-22T12:27:55.297Z,2.20
2023-07-22T12:30:23.032Z,1.90
2023-07-22T12:32:50.707Z,2.20
2023-07-22T12:35:18.441Z,2.10
2023-07-22T12:37:45.916Z,1.80
2023-07-22T12:40:14.139Z,1.90
2023-07-22T12:42:42.108Z,2.20
2023-07-22T12:45:10.706Z,2.20
2023-07-22T12:47:38.624Z,1.80
2023-07-22T12:50:09.210Z,2.40
2023-07-22T12:52:38.398Z,2.60
2023-07-22T12:55:06.620Z,4.30
2023-07-22T12:57:34.188Z,3.60
2023-07-22T13:00:01.752Z,2.50
2023-07-22T13:02:29.457Z,2.30
2023-07-22T13:04:57.054Z,2.40
2023-07-22T13:07:24.720Z,2.50
2023-07-22T13:09:57.814Z,2.40
2023-07-22T13:12:27.847Z,2.10
2023-07-22T13:14:55.364Z,2.00
2023-07-22T13:17:22.966Z,2.60
2023-07-22T13:19:50.496Z,2.40
2023-07-22T13:22:17.944Z,2.40
2023-07-22T13:24:45.548Z,2.50
2023-07-22T13:27:13.679Z,2.30
2023-07-22T13:29:41.192Z,2.60
2023-07-22T13:32:09.358Z,2.40
2023-07-22T13:34:36.829Z,2.30
2023-07-22T13:37:04.990Z,2.60
2023-07-22T13:39:32.494Z,2.50
2023-07-22T13:42:00.044Z,2.60
2023-07-22T13:44:28.265Z,2.70
2023-07-22T13:46:55.829Z,2.40
2023-07-22T13:49:23.322Z,2.20
2023-07-22T13:51:51.514Z,2.20
2023-07-22T13:54:21.059Z,2.60
2023-07-22T13:56:48.879Z,2.50
2023-07-22T13:59:16.402Z,2.90
2023-07-22T14:01:44.569Z,2.20
2023-07-22T14:04:12.179Z,2.40
2023-07-22T14:06:39.745Z,2.40
2023-07-22T14:09:07.281Z,3.00
2023-07-22T14:11:34.764Z,2.80
2023-07-22T14:14:02.316Z,2.60
2023-07-22T14:16:29.818Z,2.50
2023-07-22T14:18:58.047Z,2.70
2023-07-22T14:21:25.633Z,2.90
2023-07-22T14:23:53.318Z,2.90
2023-07-22T14:26:21.706Z,2.50
2023-07-22T14:28:49.240Z,2.70
2023-07-22T14:31:16.750Z,2.70
2023-07-22T14:33:44.284Z,2.80
2023-07-22T14:36:13.143Z,2.80
2023-07-22T14:38:40.753Z,3.10
2023-07-22T14:41:08.395Z,2.70
2023-07-22T14:43:36.267Z,2.70
2023-07-22T14:46:03.762Z,3.10
2023-07-22T14:48:31.313Z,3.10
2023-07-22T14:50:58.842Z,3.10
2023-07-22T14:53:26.295Z,3.30
2023-07-22T14:55:53.841Z,2.90
2023-07-22T14:58:21.391Z,2.90
2023-07-22T15:00:49.093Z,3.50
2023-07-22T15:03:16.890Z,2.90
2023-07-22T15:05:44.614Z,3.10
2023-07-22T15:08:12.198Z,3.40
2023-07-22T15:10:39.725Z,3.50
2023-07-22T15:13:07.258Z,3.40
2023-07-22T15:15:34.743Z,3.40
2023-07-22T15:18:02.266Z,5.50
2023-07-22T15:20:29.747Z,7.50
2023-07-22T15:22:57.272Z,4.50
2023-07-22T15:25:24.766Z,4.40
2023-07-22T15:27:52.275Z,3.60
2023-07-22T15:30:21.144Z,3.70
2023-07-22T15:32:48.666Z,4.60
2023-07-22T15:35:16.202Z,3.60
2023-07-22T15:37:43.703Z,3.50
2023-07-22T15:40:11.755Z,3.30
2023-07-22T15:42:39.460Z,3.10
2023-07-22T15:45:09.414Z,3.60
2023-07-22T15:47:37.016Z,4.10
2023-07-22T15:50:05.317Z,3.80
2023-07-22T15:54:16.608Z,3.60
2023-07-22T15:56:44.320Z,3.00
2023-07-22T15:59:11.853Z,3.70
2023-07-22T16:01:39.588Z,4.00
2023-07-22T16:04:07.156Z,3.90
2023-07-22T16:06:34.625Z,3.80
2023-07-22T16:09:02.155Z,3.80
2023-07-22T16:11:36.191Z,3.80
2023-07-22T16:14:04.789Z,3.90
2023-07-22T16:16:32.488Z,4.20
2023-07-22T16:19:00.082Z,3.80
2023-07-22T16:21:27.761Z,4.00
2023-07-22T16:23:55.491Z,4.50
2023-07-22T16:26:22.980Z,4.60
2023-07-22T16:28:50.463Z,5.20
2023-07-22T16:31:17.978Z,4.00
2023-07-22T16:33:45.830Z,3.90
2023-07-22T16:36:13.287Z,3.20
2023-07-22T16:38:40.863Z,3.70
2023-07-22T16:41:08.500Z,3.00
2023-07-22T16:43:36.020Z,2.70
2023-07-22T16:46:03.622Z,2.40
2023-07-22T16:48:31.222Z,2.00
2023-07-22T16:50:58.930Z,2.00
2023-07-22T16:53:26.403Z,1.80
2023-07-22T16:55:53.950Z,2.10
2023-07-22T16:58:21.442Z,1.60
2023-07-22T17:00:49.427Z,1.40
2023-07-22T17:03:17.573Z,1.50
2023-07-22T17:06:04.072Z,1.50
2023-07-22T17:08:31.634Z,1.30
2023-07-22T17:10:59.188Z,1.30
2023-07-22T17:13:26.693Z,1.40
2023-07-22T17:15:54.822Z,1.40
2023-07-22T17:18:22.596Z,1.40
2023-07-22T17:20:50.140Z,1.30
2023-07-22T17:23:17.677Z,1.50
2023-07-22T17:25:45.244Z,1.30
2023-07-22T17:28:12.741Z,1.30
2023-07-22T17:30:40.312Z,1.90
2023-07-22T17:33:08.710Z,1.40
2023-07-22T17:35:37.712Z,1.70
2023-07-22T17:38:05.318Z,1.50
2023-07-22T17:40:32.832Z,1.60
2023-07-22T17:43:00.894Z,1.90
2023-07-22T17:45:28.463Z,1.60
2023-07-22T17:47:56.030Z,2.00
2023-07-22T17:50:23.550Z,1.80
2023-07-22T17:52:51.075Z,2.10
2023-07-22T17:55:18.928Z,2.10
2023-07-22T17:57:46.555Z,2.30
2023-07-22T18:00:15.342Z,1.90
2023-07-22T18:02:42.838Z,1.80
2023-07-22T18:05:11.020Z,2.40
2023-07-22T18:07:38.701Z,2.30
2023-07-22T18:10:07.011Z,2.10
2023-07-22T18:12:34.612Z,2.40
2023-07-22T18:15:02.089Z,1.90
2023-07-22T18:17:29.549Z,2.50
2023-07-22T18:19:57.101Z,2.80
2023-07-22T18:22:24.665Z,2.70
2023-07-22T18:24:52.205Z,2.50
2023-07-22T18:27:20.079Z,2.70
2023-07-22T18:29:47.641Z,2.70
2023-07-22T18:32:15.145Z,2.80
2023-07-22T18:34:44.512Z,2.80
2023-07-22T18:37:12.179Z,2.50
2023-07-22T18:39:41.262Z,2.60
2023-07-22T18:42:08.895Z,2.70
2023-07-22T18:44:36.394Z,2.80
2023-07-22T18:47:04.065Z,2.70
2023-07-22T18:49:32.313Z,2.70
2023-07-22T18:51:59.996Z,2.60
2023-07-22T18:54:27.549Z,2.80
2023-07-22T18:56:55.215Z,3.00
2023-07-22T18:59:22.659Z,3.00
2023-07-22T19:01:50.307Z,2.70
2023-07-22T19:04:17.948Z,2.80
2023-07-22T19:06:46.980Z,3.10
2023-07-22T19:09:14.526Z,3.20
2023-07-22T19:11:42.011Z,2.60
2023-07-22T19:14:09.526Z,2.20
2023-07-22T19:16:37.031Z,2.30
2023-07-22T19:19:04.745Z,2.90
2023-07-22T19:21:32.283Z,2.60
2023-07-22T19:23:59.784Z,2.60
2023-07-22T19:26:27.313Z,2.60
2023-07-22T19:28:54.832Z,2.40
2023-07-22T19:31:22.537Z,2.50
2023-07-22T19:33:50.277Z,2.50
2023-07-22T19:36:19.716Z,2.50
2023-07-22T19:41:18.847Z,2.50
2023-07-22T19:43:50.573Z,2.60
2023-07-22T19:46:20.062Z,3.10
2023-07-22T19:48:47.723Z,3.20
2023-07-22T19:51:15.276Z,2.60
2023-07-22T19:53:43.120Z,2.10
2023-07-22T19:56:11.045Z,2.50
2023-07-22T19:58:38.702Z,2.70
2023-07-22T20:01:06.605Z,2.40
2023-07-22T20:03:40.852Z,2.60
2023-07-22T20:06:09.716Z,2.40
2023-07-22T20:08:40.940Z,3.00
2023-07-22T20:11:09.189Z,2.70
2023-07-22T20:13:36.891Z,2.30
2023-07-22T20:16:05.159Z,2.40
2023-07-22T20:18:32.724Z,2.10
2023-07-22T20:21:00.793Z,2.00
2023-07-22T20:23:28.273Z,2.00
2023-07-22T20:25:56.815Z,1.70
2023-07-22T20:28:24.521Z,1.70
2023-07-22T20:30:52.247Z,1.80
2023-07-22T20:33:19.844Z,1.90
2023-07-22T20:35:50.418Z,2.00
2023-07-22T20:38:19.762Z,2.30
2023-07-22T20:40:47.478Z,1.90
2023-07-22T20:43:14.977Z,2.00
2023-07-22T20:45:42.754Z,2.20
2023-07-22T20:48:10.494Z,2.00
2023-07-22T20:50:37.976Z,2.00
2023-07-22T20:53:05.575Z,2.00
2023-07-22T20:55:33.148Z,2.00
2023-07-22T20:58:00.690Z,2.20
2023-07-22T21:00:28.197Z,2.10
2023-07-22T21:02:55.803Z,1.90
2023-07-22T21:05:23.937Z,1.90
2023-07-22T21:07:52.345Z,1.90
2023-07-22T21:10:20.499Z,2.30
2023-07-22T21:12:48.585Z,2.30
2023-07-22T21:15:16.738Z,2.30
2023-07-22T21:17:45.349Z,2.30
2023-07-22T21:20:13.580Z,2.20
2023-07-22T21:22:41.401Z,2.60
2023-07-22T21:25:09.596Z,2.70
2023-07-22T21:27:47.442Z,2.70
2023-07-22T21:30:16.118Z,2.30
2023-07-22T21:32:43.718Z,2.50
2023-07-22T21:35:11.503Z,2.50
2023-07-22T21:37:39.015Z,2.70
2023-07-22T21:40:07.543Z,2.50
2023-07-22T21:42:35.083Z,2.30
2023-07-22T21:45:05.967Z,2.40
2023-07-22T21:47:33.610Z,2.50
2023-07-22T21:50:01.197Z,2.60
2023-07-22T21:52:28.732Z,2.30
2023-07-22T21:54:56.195Z,2.30
2023-07-22T21:57:23.699Z,2.50
2023-07-22T21:59:51.197Z,2.50
2023-07-22T22:02:19.636Z,2.70
2023-07-22T22:04:47.293Z,2.70
2023-07-22T22:07:14.770Z,2.30
2023-07-22T22:09:42.246Z,2.30
2023-07-22T22:12:09.789Z,2.50
2023-07-22T22:14:37.361Z,2.80
2023-07-22T22:17:05.468Z,2.70
2023-07-22T22:19:32.958Z,2.40
2023-07-22T22:22:00.568Z,2.70
2023-07-22T22:24:30.895Z,2.50
2023-07-22T22:26:58.907Z,2.40
2023-07-22T22:29:26.420Z,2.40
2023-07-22T22:31:53.879Z,2.30
2023-07-22T22:34:21.661Z,2.30
2023-07-22T22:36:50.175Z,2.50
2023-07-22T22:39:17.648Z,2.10
2023-07-22T22:41:45.108Z,2.50
2023-07-22T22:44:12.651Z,2.00
2023-07-22T22:46:42.014Z,2.20
2023-07-22T22:49:09.625Z,2.30
2023-07-22T22:51:37.366Z,2.70
2023-07-22T22:54:04.842Z,2.70
2023-07-22T22:56:32.423Z,2.60
2023-07-22T22:58:59.909Z,2.10
2023-07-22T23:01:27.756Z,2.60
2023-07-22T23:03:55.596Z,2.50
2023-07-22T23:06:23.126Z,2.50
2023-07-22T23:08:50.657Z,2.60
2023-07-22T23:11:18.935Z,2.40
2023-07-22T23:13:47.380Z,2.60
2023-07-22T23:16:15.659Z,2.40
2023-07-22T23:18:46.798Z,2.10
2023-07-22T23:21:15.553Z,2.20
2023-07-22T23:23:47.948Z,2.00
2023-07-22T23:26:16.074Z,2.10
2023-07-22T23:28:43.727Z,2.10
2023-07-22T23:31:12.189Z,2.20
2023-07-22T23:33:39.965Z,2.00
2023-07-22T23:36:08.708Z,1.90
2023-07-22T23:38:36.370Z,2.00
2023-07-22T23:41:04.002Z,2.50
2023-07-22T23:43:32.174Z,2.20
2023-07-22T23:45:59.683Z,2.30
2023-07-22T23:48:27.449Z,2.40
2023-07-22T23:50:55.302Z,2.70
2023-07-22T23:53:23.068Z,2.70
2023-07-22T23:55:50.567Z,2.50
2023-07-22T23:58:18.065Z,2.70
